createdAt,value
2022-08-07T00:00:26.014Z,102195.47
2022-08-07T00:02:53.469Z,102194.56
2022-08-07T00:05:23.701Z,102194.22
2022-08-07T00:07:59.940Z,102202.78
2022-08-07T00:10:30.913Z,102194.59
2022-08-07T00:13:09.762Z,102205.38
2022-08-07T00:15:52.082Z,102195.31
2022-08-07T00:18:24.000Z,102190.59
2022-08-07T00:20:57.413Z,102197.28
2022-08-07T00:23:30.062Z,102197.75
2022-08-07T00:26:13.113Z,102205.25
2022-08-07T00:28:56.405Z,102198.69
2022-08-07T00:31:37.278Z,102201.88
2022-08-07T00:34:08.910Z,102195.28
2022-08-07T00:36:43.178Z,102205.28
2022-08-07T00:39:16.666Z,102189.53
2022-08-07T00:42:02.211Z,102185.69
2022-08-07T00:44:34.808Z,102196.72
2022-08-07T00:47:03.873Z,102189.91
2022-08-07T00:50:21.131Z,102192.03
2022-08-07T00:52:21.142Z,102198.69
2022-08-07T00:54:53.705Z,102198.31
2022-08-07T00:57:25.941Z,102202.06
2022-08-07T00:59:54.688Z,102189.28
2022-08-07T01:02:28.560Z,102199.72
2022-08-07T01:04:59.087Z,102193.41
2022-08-07T01:07:29.616Z,102204.19
2022-08-07T01:10:06.872Z,102199.25
2022-08-07T01:12:44.785Z,102202.88
2022-08-07T01:15:35.646Z,102200.41
2022-08-07T01:18:16.880Z,102196.78
2022-08-07T01:21:22.670Z,102195.38
2022-08-07T01:23:54.301Z,102198.53
2022-08-07T01:26:23.446Z,102193.03
2022-08-07T01:28:55.381Z,102184.81
2022-08-07T01:31:37.827Z,102187.97
2022-08-07T01:34:14.494Z,102191.13
2022-08-07T01:36:44.063Z,102183.50
2022-08-07T01:39:16.789Z,102198.84
2022-08-07T01:42:36.891Z,102193.91
2022-08-07T01:44:44.214Z,102193.56
2022-08-07T01:48:20.560Z,102209.94
2022-08-07T01:50:05.781Z,102199.84
2022-08-07T01:52:49.417Z,102197.38
2022-08-07T01:55:27.488Z,102206.38
2022-08-07T01:58:05.970Z,102208.94
2022-08-07T02:00:51.707Z,102206.09
2022-08-07T02:03:42.744Z,102210.88
2022-08-07T02:06:30.675Z,102202.91
2022-08-07T02:09:05.199Z,102210.59
2022-08-07T02:12:03.667Z,102203.56
2022-08-07T02:14:36.403Z,102199.34
2022-08-07T02:17:24.907Z,102199.19
2022-08-07T02:20:04.718Z,102198.38
2022-08-07T02:22:40.946Z,102198.00
2022-08-07T02:25:17.141Z,102201.75
2022-08-07T02:27:54.725Z,102198.22
2022-08-07T02:30:23.758Z,102188.13
2022-08-07T02:33:03.871Z,102207.59
2022-08-07T02:36:28.180Z,102203.47
2022-08-07T02:38:35.745Z,102206.84
2022-08-07T02:41:05.696Z,102193.00
2022-08-07T02:43:39.411Z,102192.78
2022-08-07T02:46:08.999Z,102200.63
2022-08-07T02:48:38.483Z,102191.38
2022-08-07T02:51:41.959Z,102191.16
2022-08-07T02:54:07.980Z,102191.22
2022-08-07T02:56:39.343Z,102192.06
2022-08-07T02:59:11.055Z,102199.09
2022-08-07T03:01:40.476Z,102194.16
2022-08-07T03:04:14.690Z,102196.00
2022-08-07T03:06:45.941Z,102190.03
2022-08-07T03:09:42.071Z,102202.22
2022-08-07T03:12:11.632Z,102194.81
2022-08-07T03:14:52.606Z,102195.28
2022-08-07T03:17:22.177Z,102204.41
2022-08-07T03:19:54.857Z,102207.09
2022-08-07T03:22:30.331Z,102201.72
2022-08-07T03:25:00.481Z,102205.69
2022-08-07T03:27:59.680Z,102205.31
2022-08-07T03:30:24.359Z,102216.06
2022-08-07T03:32:58.688Z,102210.09
2022-08-07T03:35:43.552Z,102195.44
2022-08-07T03:38:13.368Z,102205.16
2022-08-07T03:40:44.340Z,102209.72
2022-08-07T03:43:15.501Z,102210.16
2022-08-07T03:45:51.366Z,102207.47
2022-08-07T03:48:24.044Z,102211.44
2022-08-07T03:50:57.900Z,102212.25
2022-08-07T03:54:05.713Z,102212.91
2022-08-07T03:56:33.252Z,102216.22
2022-08-07T03:59:09.713Z,102225.72
2022-08-07T04:01:46.252Z,102223.03
2022-08-07T04:04:17.955Z,102223.25
2022-08-07T04:07:00.096Z,102212.72
2022-08-07T04:09:45.312Z,102220.56
2022-08-07T04:12:27.115Z,102215.19
2022-08-07T04:14:58.545Z,102217.88
2022-08-07T04:18:30.815Z,102211.22
2022-08-07T04:20:17.162Z,102211.88
2022-08-07T04:22:53.168Z,102217.66
2022-08-07T04:25:23.938Z,102215.53
2022-08-07T04:27:59.389Z,102218.03
2022-08-07T04:30:35.726Z,102222.94
2022-08-07T04:33:17.885Z,102222.50
2022-08-07T04:35:50.463Z,102224.97
2022-08-07T04:38:22.448Z,102224.91
2022-08-07T04:40:51.663Z,102217.19
2022-08-07T04:44:09.865Z,102219.19
2022-08-07T04:47:07.588Z,102219.50
2022-08-07T04:50:10.869Z,102225.03
2022-08-07T04:53:06.137Z,102227.25
2022-08-07T04:58:11.625Z,102230.69
2022-08-07T05:00:14.208Z,102230.16
2022-08-07T05:02:49.245Z,102237.09
2022-08-07T05:05:54.051Z,102239.47
2022-08-07T05:08:59.629Z,102240.59
2022-08-07T05:11:56.862Z,102234.66
2022-08-07T05:14:55.860Z,102226.28
2022-08-07T05:17:52.318Z,102237.78
2022-08-07T05:20:27.135Z,102234.28
2022-08-07T05:23:06.338Z,102236.19
2022-08-07T05:26:23.818Z,102230.81
2022-08-07T05:29:04.433Z,102242.22
2022-08-07T05:31:38.495Z,102238.72
2022-08-07T05:34:12.966Z,102233.31
2022-08-07T05:36:49.322Z,102237.91
2022-08-07T05:40:05.414Z,102228.19
2022-08-07T05:42:15.118Z,102236.03
2022-08-07T05:45:14.114Z,102239.53
2022-08-07T05:48:02.038Z,102234.09
2022-08-07T05:50:39.580Z,102237.84
2022-08-07T05:54:09.409Z,102231.03
2022-08-07T05:56:05.874Z,102238.03
2022-08-07T05:58:41.848Z,102239.03
2022-08-07T06:01:21.760Z,102235.25
2022-08-07T06:03:58.593Z,102229.56
2022-08-07T06:06:32.627Z,102233.25
2022-08-07T06:09:05.021Z,102250.56
2022-08-07T06:11:35.640Z,102240.53
2022-08-07T06:14:11.952Z,102240.44
2022-08-07T06:16:50.663Z,102242.25
2022-08-07T06:19:57.513Z,102241.91
2022-08-07T06:22:24.166Z,102234.78
2022-08-07T06:25:19.454Z,102233.13
2022-08-07T06:28:01.196Z,102237.63
2022-08-07T06:30:37.449Z,102242.72
2022-08-07T06:33:19.497Z,102239.06
2022-08-07T06:36:13.025Z,102232.13
2022-08-07T06:38:59.393Z,102232.00
2022-08-07T06:42:01.063Z,102234.97
2022-08-07T06:44:51.266Z,102236.47
2022-08-07T06:47:20.936Z,102237.38
2022-08-07T06:49:51.032Z,102241.63
2022-08-07T06:52:35.287Z,102238.19
2022-08-07T06:55:32.194Z,102231.50
2022-08-07T06:58:04.325Z,102241.47
2022-08-07T07:00:39.356Z,102244.50
2022-08-07T07:03:14.396Z,102243.25
2022-08-07T07:06:05.156Z,102243.34
2022-08-07T07:08:35.172Z,102232.88
2022-08-07T07:11:13.885Z,102220.72
2022-08-07T07:14:01.436Z,102223.28
2022-08-07T07:16:45.413Z,102232.63
2022-08-07T07:19:57.392Z,102218.00
2022-08-07T07:26:30.878Z,102217.84
2022-08-07T07:28:42.753Z,102228.00
2022-08-07T07:31:39.986Z,102218.22
2022-08-07T07:34:30.914Z,102225.03
2022-08-07T07:37:14.503Z,102226.72
2022-08-07T07:39:57.964Z,102215.81
2022-08-07T07:42:32.942Z,102212.50
2022-08-07T07:45:02.789Z,102214.94
2022-08-07T07:47:42.819Z,102213.50
2022-08-07T07:50:33.819Z,102205.31
2022-08-07T07:53:20.296Z,102201.91
2022-08-07T07:56:00.583Z,102190.31
2022-08-07T07:58:36.878Z,102180.66
2022-08-07T08:02:03.602Z,102183.31
2022-08-07T08:04:10.736Z,102191.00
2022-08-07T08:06:50.807Z,102188.69
2022-08-07T08:09:22.755Z,102181.38
2022-08-07T08:12:03.006Z,102167.69
2022-08-07T08:14:36.406Z,102172.47
2022-08-07T08:17:32.284Z,102173.63
2022-08-07T08:20:17.494Z,102163.69
2022-08-07T08:23:09.511Z,102165.41
2022-08-07T08:26:04.589Z,102161.28
2022-08-07T08:28:43.259Z,102150.22
2022-08-07T08:31:30.259Z,102155.38
2022-08-07T08:34:06.050Z,102143.81
2022-08-07T08:36:37.328Z,102136.78
2022-08-07T08:39:09.013Z,102128.88
2022-08-07T08:42:04.762Z,102142.03
2022-08-07T08:45:04.279Z,102131.69
2022-08-07T08:47:52.402Z,102128.31
2022-08-07T08:50:40.039Z,102130.25
2022-08-07T08:56:47.274Z,102122.47
2022-08-07T08:59:41.993Z,102124.03
2022-08-07T09:02:40.340Z,102124.53
2022-08-07T09:05:36.720Z,102116.47
2022-08-07T09:08:43.513Z,102115.81
2022-08-07T09:11:24.802Z,102116.56
2022-08-07T09:14:13.024Z,102109.03
2022-08-07T09:17:18.575Z,102114.84
2022-08-07T09:20:24.950Z,102100.34
2022-08-07T09:24:30.716Z,102101.66
2022-08-07T09:26:17.215Z,102090.25
2022-08-07T09:30:01.001Z,102085.84
2022-08-07T09:31:55.135Z,102083.66
2022-08-07T09:34:54.211Z,102075.50
2022-08-07T09:37:53.572Z,102072.91
2022-08-07T09:40:38.647Z,102061.56
2022-08-07T09:44:06.915Z,102060.47
2022-08-07T09:47:50.342Z,102058.06
2022-08-07T09:50:30.449Z,102051.19
2022-08-07T09:53:05.045Z,102044.53
2022-08-07T09:56:19.862Z,102043.34
2022-08-07T09:59:37.116Z,102039.66
2022-08-07T10:02:55.875Z,102043.63
2022-08-07T10:06:00.855Z,102046.28
2022-08-07T10:09:15.236Z,102033.94
2022-08-07T10:12:21.851Z,102050.88
2022-08-07T10:15:37.537Z,102036.63
2022-08-07T10:18:39.549Z,102044.84
2022-08-07T10:22:14.604Z,102038.47
2022-08-07T10:24:25.774Z,102019.63
2022-08-07T10:28:02.357Z,102007.91
2022-08-07T10:31:06.029Z,101999.84
2022-08-07T10:34:17.955Z,101996.09
2022-08-07T10:37:12.707Z,101983.81
2022-08-07T10:40:06.069Z,101978.53
2022-08-07T10:42:53.738Z,101976.13
2022-08-07T10:45:44.501Z,101976.66
2022-08-07T10:48:57.870Z,101960.44
2022-08-07T10:52:13.450Z,101958.72
2022-08-07T10:55:01.754Z,101962.28
2022-08-07T10:57:51.628Z,101962.69
2022-08-07T11:00:36.561Z,101963.00
2022-08-07T11:03:28.060Z,101954.69
2022-08-07T11:06:28.592Z,101958.63
2022-08-07T11:10:09.619Z,101959.88
2022-08-07T11:12:11.541Z,101954.25
2022-08-07T11:15:00.211Z,101957.63
2022-08-07T11:17:50.504Z,101948.69
2022-08-07T11:20:37.273Z,101940.63
2022-08-07T11:23:48.532Z,101933.78
2022-08-07T11:26:48.093Z,101930.22
2022-08-07T11:29:41.971Z,101927.63
2022-08-07T11:32:25.231Z,101919.84
2022-08-07T11:35:09.627Z,101922.47
2022-08-07T11:37:58.497Z,101912.94
2022-08-07T11:41:06.443Z,101914.47
2022-08-07T11:44:12.740Z,101910.47
2022-08-07T11:47:02.400Z,101902.66
2022-08-07T11:50:25.732Z,101893.88
2022-08-07T11:53:35.471Z,101888.69
2022-08-07T11:56:33.372Z,101899.00
2022-08-07T12:00:10.138Z,101902.44
2022-08-07T12:03:44.805Z,101889.31
2022-08-07T12:06:56.191Z,101886.13
2022-08-07T12:09:41.149Z,101878.53
2022-08-07T12:12:12.598Z,101880.06
2022-08-07T12:15:17.260Z,101870.88
2022-08-07T12:18:16.049Z,101871.66
2022-08-07T12:21:06.093Z,101863.94
2022-08-07T12:24:36.939Z,101862.84
2022-08-07T12:27:28.131Z,101860.72
2022-08-07T12:30:39.047Z,101857.56
2022-08-07T12:33:23.555Z,101862.31
2022-08-07T12:35:59.201Z,101856.41
2022-08-07T12:38:42.864Z,101857.03
2022-08-07T12:41:16.497Z,101856.19
2022-08-07T12:44:02.676Z,101853.66
2022-08-07T12:47:01.529Z,101852.13
2022-08-07T12:50:38.218Z,101855.72
2022-08-07T12:56:19.840Z,101832.09
2022-08-07T12:58:56.955Z,101831.13
2022-08-07T13:02:09.773Z,101836.59
2022-08-07T13:06:01.772Z,101838.19
2022-08-07T13:09:03.087Z,101831.06
2022-08-07T13:12:19.694Z,101838.53
2022-08-07T13:15:03.600Z,101830.59
2022-08-07T13:17:56.240Z,101827.25
2022-08-07T13:20:46.629Z,101838.19
2022-08-07T13:24:02.052Z,101837.41
2022-08-07T13:26:41.842Z,101834.03
2022-08-07T13:29:35.234Z,101845.47
2022-08-07T13:32:37.397Z,101840.28
2022-08-07T13:35:23.511Z,101831.41
2022-08-07T13:38:19.737Z,101834.50
2022-08-07T13:41:16.923Z,101828.66
2022-08-07T13:43:52.550Z,101819.72
2022-08-07T13:46:32.828Z,101817.59
2022-08-07T13:49:05.169Z,101803.09
2022-08-07T13:52:04.990Z,101806.50
2022-08-07T13:54:49.087Z,101808.78
2022-08-07T13:57:23.988Z,101795.31
2022-08-07T13:59:56.046Z,101800.09
2022-08-07T14:02:33.265Z,101794.19
2022-08-07T14:05:15.666Z,101791.09
2022-08-07T14:08:00.991Z,101791.47
2022-08-07T14:10:42.058Z,101786.63
2022-08-07T14:13:17.936Z,101784.59
2022-08-07T14:15:59.045Z,101780.28
2022-08-07T14:18:57.296Z,101790.69
2022-08-07T14:22:03.508Z,101789.06
2022-08-07T14:24:28.439Z,101787.97
2022-08-07T14:28:09.552Z,101775.09
2022-08-07T14:30:09.830Z,101777.66
2022-08-07T14:32:46.214Z,101780.72
2022-08-07T14:35:43.440Z,101771.09
2022-08-07T14:38:26.741Z,101770.13
2022-08-07T14:41:14.653Z,101760.72
2022-08-07T14:43:59.119Z,101762.34
2022-08-07T14:46:32.930Z,101763.56
2022-08-07T14:49:56.003Z,101758.66
2022-08-07T14:52:02.870Z,101751.91
2022-08-07T14:54:41.699Z,101756.28
2022-08-07T15:00:06.976Z,101760.69
2022-08-07T15:02:37.145Z,101753.06
2022-08-07T15:05:19.743Z,101752.91
2022-08-07T15:13:06.262Z,101759.84
2022-08-07T15:13:35.942Z,101762.34
2022-08-07T15:16:14.693Z,101756.84
2022-08-07T15:18:51.593Z,101749.69
2022-08-07T15:27:29.040Z,101736.56
2022-08-07T15:30:16.585Z,101732.59
2022-08-07T15:33:19.144Z,101735.06
2022-08-07T15:36:01.160Z,101734.28
2022-08-07T15:38:33.129Z,101728.28
2022-08-07T15:44:18.479Z,101736.56
2022-08-07T15:46:56.411Z,101737.09
2022-08-07T15:52:29.602Z,101732.81
2022-08-07T15:55:03.374Z,101738.94
2022-08-07T15:57:47.942Z,101731.44
2022-08-07T16:00:22.762Z,101734.41
2022-08-07T16:03:21.745Z,101741.75
2022-08-07T16:05:59.174Z,101727.44
2022-08-07T16:08:37.947Z,101729.41
2022-08-07T16:11:26.944Z,101728.22
2022-08-07T16:14:12.822Z,101726.19
2022-08-07T16:18:02.851Z,101726.91
2022-08-07T16:21:56.778Z,101720.88
2022-08-07T16:24:01.223Z,101722.78
2022-08-07T16:26:59.279Z,101720.34
2022-08-07T16:30:30.706Z,101719.81
2022-08-07T16:34:02.279Z,101722.47
2022-08-07T16:36:31.185Z,101735.09
2022-08-07T16:39:40.340Z,101726.91
2022-08-07T16:43:04.151Z,101717.09
2022-08-07T16:46:47.224Z,101727.25
2022-08-07T16:50:20.355Z,101716.22
2022-08-07T16:52:52.729Z,101727.31
2022-08-07T16:55:47.274Z,101730.13
2022-08-07T16:59:14.824Z,101722.91
2022-08-07T17:02:14.306Z,101732.53
2022-08-07T17:06:19.444Z,101735.34
2022-08-07T17:08:09.642Z,101729.00
2022-08-07T17:10:54.746Z,101731.97
2022-08-07T17:13:41.390Z,101736.72
2022-08-07T17:16:26.068Z,101733.38
2022-08-07T17:19:17.293Z,101738.50
2022-08-07T17:22:15.482Z,101748.53
2022-08-07T17:25:00.133Z,101736.44
2022-08-07T17:27:52.480Z,101751.78
2022-08-07T17:30:29.150Z,101750.06
2022-08-07T17:34:09.779Z,101750.78
2022-08-07T17:36:13.661Z,101747.78
2022-08-07T17:39:10.505Z,101743.91
2022-08-07T17:42:07.010Z,101751.91
2022-08-07T17:44:58.387Z,101757.16
2022-08-07T17:47:42.393Z,101763.38
2022-08-07T17:50:20.961Z,101757.22
2022-08-07T17:52:58.941Z,101761.91
2022-08-07T17:56:06.475Z,101759.41
2022-08-07T17:58:56.808Z,101763.91
2022-08-07T18:01:43.902Z,101766.25
2022-08-07T18:04:34.687Z,101767.25
2022-08-07T18:07:43.789Z,101770.22
2022-08-07T18:10:33.007Z,101752.75
2022-08-07T18:13:27.082Z,101773.16
2022-08-07T18:16:34.941Z,101768.94
2022-08-07T18:21:06.351Z,101772.09
2022-08-07T18:22:17.145Z,101772.22
2022-08-07T18:25:18.866Z,101771.34
2022-08-07T18:28:34.184Z,101768.34
2022-08-07T18:31:18.811Z,101771.63
2022-08-07T18:34:37.482Z,101775.72
2022-08-07T18:38:55.946Z,101776.53
2022-08-07T18:41:45.875Z,101786.53
2022-08-07T18:45:42.809Z,101783.09
2022-08-07T18:48:00.724Z,101793.69
2022-08-07T18:50:47.314Z,101791.91
2022-08-07T18:53:36.781Z,101799.03
2022-08-07T18:56:41.342Z,101800.25
2022-08-07T19:00:32.591Z,101799.81
2022-08-07T19:03:20.090Z,101806.78
2022-08-07T19:06:16.479Z,101803.81
2022-08-07T19:08:55.724Z,101815.53
2022-08-07T19:12:17.801Z,101816.94
2022-08-07T19:18:34.595Z,101813.94
2022-08-07T19:21:47.965Z,101820.66
2022-08-07T19:24:30.946Z,101832.53
2022-08-07T19:28:58.566Z,101827.81
2022-08-07T19:31:03.755Z,101834.00
2022-08-07T19:33:10.162Z,101831.94
2022-08-07T19:35:50.537Z,101833.97
2022-08-07T19:41:11.682Z,101827.97
2022-08-07T19:43:49.249Z,101838.94
2022-08-07T19:46:31.014Z,101837.44
2022-08-07T19:49:06.128Z,101845.16
2022-08-07T19:51:53.285Z,101838.69
2022-08-07T19:54:34.192Z,101837.63
2022-08-07T19:58:02.713Z,101850.25
2022-08-07T20:00:29.222Z,101850.63
2022-08-07T20:03:33.643Z,101848.50
2022-08-07T20:06:06.150Z,101852.41
2022-08-07T20:08:38.513Z,101848.09
2022-08-07T20:11:14.959Z,101849.81
2022-08-07T20:13:51.229Z,101850.13
2022-08-07T20:16:35.670Z,101861.59
2022-08-07T20:19:11.103Z,101856.72
2022-08-07T20:21:47.740Z,101855.13
2022-08-07T20:24:22.402Z,101858.41
2022-08-07T20:26:54.554Z,101859.28
2022-08-07T20:29:49.521Z,101866.66
2022-08-07T20:32:25.450Z,101878.66
2022-08-07T20:34:58.992Z,101866.72
2022-08-07T20:37:36.866Z,101864.59
2022-08-07T20:40:32.383Z,101873.59
2022-08-07T20:43:14.507Z,101874.16
2022-08-07T20:46:26.441Z,101866.25
2022-08-07T20:49:55.200Z,101872.53
2022-08-07T20:51:35.615Z,101883.16
2022-08-07T20:54:15.165Z,101872.00
2022-08-07T20:57:01.910Z,101885.88
2022-08-07T21:00:06.154Z,101877.19
2022-08-07T21:02:53.951Z,101886.44
2022-08-07T21:05:47.825Z,101896.50
2022-08-07T21:08:20.682Z,101891.34
2022-08-07T21:11:10.733Z,101891.91
2022-08-07T21:14:16.304Z,101886.72
2022-08-07T21:16:55.982Z,101887.50
2022-08-07T21:19:51.627Z,101884.25
2022-08-07T21:22:25.610Z,101876.91
2022-08-07T21:25:17.189Z,101888.59
2022-08-07T21:28:49.097Z,101891.56
2022-08-07T21:32:46.945Z,101893.44
2022-08-07T21:35:11.572Z,101902.91
2022-08-07T21:37:58.930Z,101895.56
2022-08-07T21:40:55.116Z,101887.94
2022-08-07T21:44:03.615Z,101886.84
2022-08-07T21:46:54.535Z,101892.00
2022-08-07T21:49:40.651Z,101894.69
2022-08-07T21:52:58.742Z,101897.06
2022-08-07T21:56:03.756Z,101892.16
2022-08-07T21:59:04.835Z,101894.84
2022-08-07T22:02:07.043Z,101890.22
2022-08-07T22:04:35.859Z,101889.13
2022-08-07T22:07:23.043Z,101898.59
2022-08-07T22:10:04.698Z,101891.00
2022-08-07T22:12:43.631Z,101900.47
2022-08-07T22:16:38.553Z,101900.41
2022-08-07T22:18:33.622Z,101902.84
2022-08-07T22:22:04.312Z,101894.69
2022-08-07T22:24:33.369Z,101894.66
2022-08-07T22:27:17.829Z,101896.81
2022-08-07T22:29:58.484Z,101900.31
2022-08-07T22:33:09.309Z,101894.84
2022-08-07T22:36:05.103Z,101899.19
2022-08-07T22:38:55.700Z,101899.41
2022-08-07T22:42:02.388Z,101900.75
2022-08-07T22:44:25.227Z,101890.09
2022-08-07T22:47:38.356Z,101898.75
2022-08-07T22:50:45.236Z,101903.59
2022-08-07T22:54:06.429Z,101904.63
2022-08-07T22:57:05.622Z,101903.47
2022-08-07T22:59:52.803Z,101905.88
2022-08-07T23:02:27.549Z,101908.00
2022-08-07T23:06:10.027Z,101911.22
2022-08-07T23:10:03.849Z,101913.03
2022-08-07T23:12:35.667Z,101918.41
2022-08-07T23:16:04.673Z,101906.44
2022-08-07T23:18:32.609Z,101908.28
2022-08-07T23:21:20.999Z,101913.72
2022-08-07T23:24:23.064Z,101915.56
2022-08-07T23:27:13.012Z,101920.66
2022-08-07T23:30:37.356Z,101914.13
2022-08-07T23:34:20.818Z,101919.25
2022-08-07T23:37:19.385Z,101912.13
2022-08-07T23:40:07.551Z,101907.19
2022-08-07T23:43:01.257Z,101908.78
2022-08-07T23:46:02.872Z,101914.44
2022-08-07T23:49:15.414Z,101914.97
2022-08-07T23:53:08.845Z,101914.09
2022-08-07T23:54:52.883Z,101910.56
2022-08-07T23:57:41.355Z,101915.69
